Argo B — V7TY5 — position and weather

sailwx.info

Track history (hours):
 
Tides and Currents Weather Stations Pressure Air Temp Water Temp Dewpoint Dewpoint Depression Visibility Wind Speed Wind Dir Waves Ship Positions

Argo B

Last reported at 2018-Jan-12 06:08 UTC. Time now 2018-Jan-23 18:16 UTC.
Position N 49°50' W 003°21'.
Warning: this ship's position is 11 days out of date.

Length 180 m; draft 10 m.

Type: Cargo ship. MMSI: 538003906.

Date/timePositionNaut miles runAvg speedWind from/ knotsBaromVisibWave heightAir tempDewpointWater temp
2018-Jan-12 06:08N 49°50' W 003°21'311.1
2018-Jan-12 05:53N 49°51' W 003°18'410.9
2018-Jan-12 05:30N 49°54' W 003°12'610.4
2018-Jan-12 04:54N 49°58' W 003°05'410.2
2018-Jan-12 04:30N 49°59' W 002°59'5 9.9
2018-Jan-12 03:57N 50°00' W 002°51'5 9.8
2018-Jan-12 03:30N 50°01' W 002°44'6 9.6
2018-Jan-12 02:55N 50°03' W 002°36'2010.0
2018-Jan-12 00:56N 50°01' W 002°05'511.5
2018-Jan-12 00:30N 49°60' W 001°58'612.1
2018-Jan-12 00:00N 49°58' W 001°49'612.8
2018-Jan-11 23:30N 49°55' W 001°40'713.3
2018-Jan-11 23:00N 49°53' W 001°30'713.9
2018-Jan-11 22:31N 49°51' W 001°20'714.1
2018-Jan-11 22:01N 49°49' W 001°09'713.8
2018-Jan-11 21:30N 49°46' W 000°60'713.2
2018-Jan-11 21:00N 49°43' W 000°50'612.9
2018-Jan-11 20:30N 49°40' W 000°41'612.5
2018-Jan-11 20:01N 49°38' W 000°33'611.8
2018-Jan-11 19:31N 49°35' W 000°25'611.3
2018-Jan-11 19:00N 49°33' W 000°16'511.2
2018-Jan-11 18:31N 49°30' W 000°09'611.3
2018-Jan-11 18:01N 49°28' W 000°01'510.3
2018-Jan-11 17:30N 49°26' E 000°07'510.4
2018-Jan-11 17:00N 49°26' E 000°15'4 8.8
2018-Jan-11 16:31N 49°26' E 000°21'4 8.5
2018-Jan-11 16:00N 49°28' E 000°27'3 6.0
2018-Jan-11 15:31N 49°29' E 000°32'4 7.8
2018-Jan-11 15:00N 49°26' E 000°36'4 8.3
2018-Jan-11 14:31N 49°29' E 000°40'4 7.8
2018-Jan-11 14:00N 49°31' E 000°45'5 9.1
2018-Jan-11 13:31N 49°28' E 000°49'4 8.8
2018-Jan-11 13:01N 49°24' E 000°51'5 9.3
2018-Jan-11 12:30N 49°28' E 000°52'3 6.7
2018-Jan-11 12:01N 49°27' E 000°56'510.3
2018-Jan-11 11:31N 49°21' E 000°56'3 6.5
2018-Jan-11 11:01N 49°22' E 001°00'1 1.8
2018-Jan-11 10:30N 49°23' E 001°01'0 0.0
2018-Jan-11 09:57N 49°23' E 001°01'0 0.0
2018-Jan-11 09:30N 49°23' E 001°01'0 0.0
2018-Jan-11 09:00N 49°23' E 001°01'0 0.0
2018-Jan-11 08:30N 49°23' E 001°01'0 0.0
2018-Jan-11 08:00N 49°23' E 001°01'0 0.0
2018-Jan-11 07:30N 49°23' E 001°01'0 0.0
2018-Jan-11 07:00N 49°23' E 001°01'1 1.2
2018-Jan-11 06:30N 49°24' E 001°01'1 1.5
2018-Jan-11 06:00N 49°25' E 001°01'0 0.0
2018-Jan-11 05:30N 49°25' E 001°01'0 0.0
2018-Jan-11 05:00N 49°25' E 001°01'0 0.0
2018-Jan-11 04:30N 49°25' E 001°01'0 0.0
2018-Jan-11 04:00N 49°25' E 001°01'0 0.0
2018-Jan-11 03:30N 49°25' E 001°01'0 0.0
2018-Jan-11 03:00N 49°25' E 001°01'0 0.0
2018-Jan-11 02:30N 49°25' E 001°01'0 0.0
2018-Jan-11 02:00N 49°25' E 001°01'0 0.0
2018-Jan-11 01:30N 49°25' E 001°01'0 0.0
2018-Jan-11 01:00N 49°25' E 001°01'0 0.0
2018-Jan-11 00:30N 49°25' E 001°01'0 0.0
2018-Jan-11 00:00N 49°25' E 001°01'0 0.0
2018-Jan-10 23:30N 49°25' E 001°01'0 0.0
2018-Jan-10 23:00N 49°25' E 001°01'0 0.0
2018-Jan-10 22:30N 49°25' E 001°01'0 0.0
2018-Jan-10 22:00N 49°25' E 001°01'0 0.0
2018-Jan-10 21:30N 49°25' E 001°01'0 0.0
2018-Jan-10 21:00N 49°25' E 001°01'0 0.0
2018-Jan-10 20:30N 49°25' E 001°01'0 0.0
2018-Jan-10 20:00N 49°25' E 001°01'0 0.0
2018-Jan-10 19:24N 49°25' E 001°01'0 0.0
2018-Jan-10 19:00N 49°25' E 001°01'0 0.0
2018-Jan-10 18:30N 49°25' E 001°01'0 0.0
2018-Jan-10 18:00N 49°25' E 001°01'0 0.0
2018-Jan-10 17:30N 49°25' E 001°01'0 0.0
2018-Jan-10 17:00N 49°25' E 001°01'0 0.9
2018-Jan-10 16:30N 49°24' E 001°01'0 0.5
2018-Jan-10 15:58N 49°24' E 001°01'0 0.0
2018-Jan-10 15:28N 49°24' E 001°01'0 0.0
2018-Jan-10 14:58N 49°24' E 001°01'0 0.0
2018-Jan-10 14:28N 49°24' E 001°01'0 0.0
2018-Jan-10 13:58N 49°24' E 001°01'0 0.0
2018-Jan-10 13:28N 49°24' E 001°01'0 0.0
2018-Jan-10 12:58N 49°24' E 001°01'0 0.0
2018-Jan-10 12:28N 49°24' E 001°01'0 0.0
2018-Jan-10 11:58N 49°24' E 001°01'0 0.0
2018-Jan-10 11:28N 49°24' E 001°01'0 0.0
2018-Jan-10 10:58N 49°24' E 001°01'0 0.0
2018-Jan-10 10:28N 49°24' E 001°01'0 0.0
2018-Jan-10 09:58N 49°24' E 001°01'0 0.0
2018-Jan-10 09:28N 49°24' E 001°01'0 0.0
2018-Jan-10 08:58N 49°24' E 001°01'0 0.0
2018-Jan-10 08:28N 49°24' E 001°01'0 0.0
2018-Jan-10 07:58N 49°24' E 001°01'0 0.0
2018-Jan-10 07:28N 49°24' E 001°01'0 0.0
2018-Jan-10 06:58N 49°24' E 001°01'0 0.0
2018-Jan-10 06:25N 49°24' E 001°01'0 0.0
2018-Jan-10 05:58N 49°24' E 001°01'0 0.0
2018-Jan-10 05:28N 49°24' E 001°01'0 0.0
2018-Jan-10 04:58N 49°24' E 001°01'0 0.0
2018-Jan-10 04:25N 49°24' E 001°01'0 0.0
2018-Jan-10 03:58N 49°24' E 001°01'0 0.0
2018-Jan-10 03:28N 49°24' E 001°01'0 0.0
2018-Jan-10 02:58N 49°24' E 001°01'0 0.0
2018-Jan-10 02:28N 49°24' E 001°01'0 0.0
2018-Jan-10 01:58N 49°24' E 001°01'0 0.0
2018-Jan-10 01:28N 49°24' E 001°01'0 0.0
2018-Jan-10 00:58N 49°24' E 001°01'0 0.0
2018-Jan-10 00:28N 49°24' E 001°01'0 0.0
2018-Jan-09 23:58N 49°24' E 001°01'0 0.0
2018-Jan-09 23:28N 49°24' E 001°01'0 0.0
2018-Jan-09 22:55N 49°24' E 001°01'0 0.0
2018-Jan-09 22:28N 49°24' E 001°01'0 0.0
2018-Jan-09 21:58N 49°24' E 001°01'0 0.0
2018-Jan-09 21:28N 49°24' E 001°01'0 0.0
2018-Jan-09 20:58N 49°24' E 001°01'0 0.0
2018-Jan-09 20:19N 49°24' E 001°01'0 0.0
2018-Jan-09 19:58N 49°24' E 001°01'0 0.0
2018-Jan-09 19:28N 49°24' E 001°01'0 0.0
2018-Jan-09 18:58N 49°24' E 001°01'0 0.0
2018-Jan-09 18:28N 49°24' E 001°01'0 0.0
2018-Jan-09 17:58N 49°24' E 001°01'0 0.0
2018-Jan-09 17:25N 49°24' E 001°01'0 0.0
2018-Jan-09 16:58N 49°24' E 001°01'0 0.0
2018-Jan-09 16:28N 49°24' E 001°01'0 0.0
2018-Jan-09 15:58N 49°24' E 001°01'0 0.0
2018-Jan-09 15:28N 49°24' E 001°01'0 0.0
2018-Jan-09 14:58N 49°24' E 001°01'0 0.0
2018-Jan-09 14:28N 49°24' E 001°01'0 0.0
2018-Jan-09 13:58N 49°24' E 001°01'0 0.0
2018-Jan-09 13:28N 49°24' E 001°01'0 0.0
2018-Jan-09 12:58N 49°24' E 001°01'0 0.0
2018-Jan-09 12:28N 49°24' E 001°01'0 0.0
2018-Jan-09 11:58N 49°24' E 001°01'0 0.0
2018-Jan-09 11:28N 49°24' E 001°01'0 0.0
2018-Jan-09 10:58N 49°24' E 001°01'0 0.0
2018-Jan-09 10:28N 49°24' E 001°01'0 0.0
2018-Jan-09 09:58N 49°24' E 001°01'0 0.0
2018-Jan-09 09:28N 49°24' E 001°01'0 0.0
2018-Jan-09 08:58N 49°24' E 001°01'0 0.0
2018-Jan-09 08:28N 49°24' E 001°01'0 0.0
2018-Jan-09 07:58N 49°24' E 001°01'0 0.0
2018-Jan-09 07:28N 49°24' E 001°01'0 0.0
2018-Jan-09 06:58N 49°24' E 001°01'0 0.0
2018-Jan-09 06:28N 49°24' E 001°01'0 0.0
2018-Jan-09 05:58N 49°24' E 001°01'0 0.0
2018-Jan-09 05:28N 49°24' E 001°01'0 0.0
2018-Jan-09 04:58N 49°24' E 001°01'0 0.0
2018-Jan-09 04:28N 49°24' E 001°01'0 0.0
2018-Jan-09 03:58N 49°24' E 001°01'0 0.0
2018-Jan-09 03:28N 49°24' E 001°01'0 0.0
2018-Jan-09 02:58N 49°24' E 001°01'0 0.0
2018-Jan-09 02:28N 49°24' E 001°01'0 0.0
2018-Jan-09 01:58N 49°24' E 001°01'0 0.0
2018-Jan-09 01:28N 49°24' E 001°01'0 0.0
2018-Jan-09 00:58N 49°24' E 001°01'0 0.0
2018-Jan-09 00:28N 49°24' E 001°01'0 0.0
2018-Jan-08 23:58N 49°24' E 001°01'0 0.0
2018-Jan-08 23:28N 49°24' E 001°01'0 0.0
2018-Jan-08 22:58N 49°24' E 001°01'0 0.0
2018-Jan-08 22:28N 49°24' E 001°01'0 0.0
2018-Jan-08 21:58N 49°24' E 001°01'0 0.0
2018-Jan-08 21:28N 49°24' E 001°01'0 0.0
2018-Jan-08 20:58N 49°24' E 001°01'0 0.0
2018-Jan-08 20:28N 49°24' E 001°01'0 0.0
2018-Jan-08 19:58N 49°24' E 001°01'0 0.0
2018-Jan-08 19:28N 49°24' E 001°01'0 0.0
2018-Jan-08 18:58N 49°24' E 001°01'0 0.0
2018-Jan-08 18:28N 49°24' E 001°01'0 0.0
2018-Jan-08 17:58N 49°24' E 001°01'0 0.0
2018-Jan-08 17:28N 49°24' E 001°01'0 0.0
2018-Jan-08 16:58N 49°24' E 001°01'0 0.0
2018-Jan-08 16:28N 49°24' E 001°01'0 0.0
2018-Jan-08 15:58N 49°24' E 001°01'0 0.0
2018-Jan-08 15:28N 49°24' E 001°01'0 0.0
2018-Jan-08 14:58N 49°24' E 001°01'0 0.0
2018-Jan-08 14:28N 49°24' E 001°01'0 0.0
2018-Jan-08 13:58N 49°24' E 001°01'0 0.0
2018-Jan-08 13:25N 49°24' E 001°01'0 0.0
2018-Jan-08 12:58N 49°24' E 001°01'0 0.0
2018-Jan-08 12:28N 49°24' E 001°01'0 0.0
2018-Jan-08 11:55N 49°24' E 001°01'0 0.0
2018-Jan-08 11:28N 49°24' E 001°01'0 0.0
2018-Jan-08 10:58N 49°24' E 001°01'0 0.0
2018-Jan-08 10:28N 49°24' E 001°01'0 0.0
2018-Jan-08 09:58N 49°24' E 001°01'0 0.0
2018-Jan-08 09:28N 49°24' E 001°01'0 0.0
2018-Jan-08 08:58N 49°24' E 001°01'0 0.0
2018-Jan-08 08:28N 49°24' E 001°01'0 0.0
2018-Jan-08 07:58N 49°24' E 001°01'0 0.0
2018-Jan-08 07:28N 49°24' E 001°01'0 0.0
2018-Jan-08 06:58N 49°24' E 001°01'0 0.0
2018-Jan-08 06:28N 49°24' E 001°01'0 0.0
2018-Jan-08 05:58N 49°24' E 001°01'0 0.0
2018-Jan-08 05:28N 49°24' E 001°01'0 0.0
2018-Jan-08 04:58N 49°24' E 001°01'0 0.0
2018-Jan-08 04:30N 49°24' E 001°01'1 2.2
2018-Jan-08 04:00N 49°23' E 001°01'1 2.5
2018-Jan-08 03:30N 49°22' E 000°60'3 6.4
2018-Jan-08 03:00N 49°23' E 000°55'612.3
2018-Jan-08 02:30N 49°29' E 000°55'5 9.5
2018-Jan-08 02:00N 49°25' E 000°52'3 6.4
2018-Jan-08 01:30N 49°27' E 000°49'510.7
2018-Jan-08 01:00N 49°31' E 000°44'4 8.8
2018-Jan-08 00:30N 49°28' E 000°40'5 9.4
2018-Jan-08 00:00N 49°28' E 000°33'5 9.3
2018-Jan-07 23:30N 49°27' E 000°26'713.3
2018-Jan-07 23:00N 49°26' E 000°16'612.9
2018-Jan-07 22:30N 49°26' E 000°06'612.0
2018-Jan-07 22:00N 49°28' W 000°03'3 5.9
2018-Jan-07 21:30N 49°29' W 000°07'1 2.8
2018-Jan-07 21:00N 49°29' W 000°09'0 0.2
2018-Jan-07 20:30N 49°29' W 000°09'0 0.1
2018-Jan-07 20:00N 49°29' W 000°09'0 0.0
2018-Jan-07 19:27N 49°29' W 000°09'0 0.0
2018-Jan-07 19:00N 49°29' W 000°09'0 0.0
2018-Jan-07 18:27N 49°29' W 000°09'0 0.1
2018-Jan-07 17:57N 49°29' W 000°09'0 0.0
2018-Jan-07 17:27N 49°29' W 000°09'0 0.1
2018-Jan-07 16:57N 49°29' W 000°09'0 0.1
2018-Jan-07 16:30N 49°29' W 000°09'0 0.0
2018-Jan-07 16:00N 49°29' W 000°09'0 0.0
2018-Jan-07 15:30N 49°29' W 000°09'1 1.2
2018-Jan-07 15:00N 49°29' W 000°10'2 3.4
2018-Jan-07 14:30N 49°30' W 000°13'4 8.4
2018-Jan-07 14:00N 49°32' W 000°18'5 9.6
2018-Jan-07 13:30N 49°36' W 000°22'4 7.6
2018-Jan-07 13:00N 49°36' W 000°28'4 8.1
2018-Jan-07 12:30N 49°38' W 000°34'4 7.8
2018-Jan-07 12:00N 49°39' W 000°40'4 7.7
2018-Jan-07 11:30N 49°40' W 000°45'4 7.5
2018-Jan-07 11:00N 49°42' W 000°50'77 6.2
2018-Jan-06 22:32N 49°50' W 002°49'010.3
2018-Jan-06 22:30N 49°50' W 002°50'381 7.4
2018-Jan-04 18:59N 43°48' W 005°41'5 9.9
2018-Jan-04 18:28N 43°43' W 005°40'5 9.9
2018-Jan-04 18:00N 43°39' W 005°40'4 8.6
2018-Jan-04 17:30N 43°34' W 005°40'1 0.3
2018-Jan-04 12:36N 43°34' W 005°41'0 0.0
2018-Jan-04 12:18N 43°34' W 005°41'0 0.0
2018-Jan-04 06:30N 43°34' W 005°41'0 0.0
2018-Jan-04 04:30N 43°34' W 005°41'0 0.0
2018-Jan-04 04:00N 43°34' W 005°41'0 0.0
2018-Jan-04 03:30N 43°34' W 005°41'0 0.0
2018-Jan-03 06:54N 43°34' W 005°41'0 0.0
2018-Jan-03 06:18N 43°34' W 005°41'0 0.0
2018-Jan-03 05:48N 43°34' W 005°41'0 0.0
2018-Jan-03 05:12N 43°34' W 005°41'0 0.0
2018-Jan-03 04:54N 43°34' W 005°41'0 0.0
2018-Jan-03 04:18N 43°34' W 005°41'0 0.0
2018-Jan-03 03:42N 43°34' W 005°41'0 0.0
2018-Jan-03 03:12N 43°34' W 005°41'0 0.0
2018-Jan-03 02:00N 43°34' W 005°41'0 0.0
2018-Jan-03 01:18N 43°34' W 005°41'  
Track history (hours):
 
Tides and Currents Weather Stations Pressure Air Temp Water Temp Dewpoint Dewpoint Depression Visibility Wind Speed Wind Dir Waves Ship Positions

Argo B

Last reported at 2018-Jan-12 06:08 UTC. Time now 2018-Jan-23 18:16 UTC.
Position N 49°50' W 003°21'.
Warning: this ship's position is 11 days out of date.

Length 180 m; draft 10 m.

Type: Cargo ship. MMSI: 538003906.

Date/timePositionNaut miles runAvg speedWind from/ knotsBaromVisibWave heightAir tempDewpointWater temp
2018-Jan-12 06:08N 49°50' W 003°21'311.1
2018-Jan-12 05:53N 49°51' W 003°18'410.9
2018-Jan-12 05:30N 49°54' W 003°12'610.4
2018-Jan-12 04:54N 49°58' W 003°05'410.2
2018-Jan-12 04:30N 49°59' W 002°59'5 9.9
2018-Jan-12 03:57N 50°00' W 002°51'5 9.8
2018-Jan-12 03:30N 50°01' W 002°44'6 9.6
2018-Jan-12 02:55N 50°03' W 002°36'2010.0
2018-Jan-12 00:56N 50°01' W 002°05'511.5
2018-Jan-12 00:30N 49°60' W 001°58'612.1
2018-Jan-12 00:00N 49°58' W 001°49'612.8
2018-Jan-11 23:30N 49°55' W 001°40'713.3
2018-Jan-11 23:00N 49°53' W 001°30'713.9
2018-Jan-11 22:31N 49°51' W 001°20'714.1
2018-Jan-11 22:01N 49°49' W 001°09'713.8
2018-Jan-11 21:30N 49°46' W 000°60'713.2
2018-Jan-11 21:00N 49°43' W 000°50'612.9
2018-Jan-11 20:30N 49°40' W 000°41'612.5
2018-Jan-11 20:01N 49°38' W 000°33'611.8
2018-Jan-11 19:31N 49°35' W 000°25'611.3
2018-Jan-11 19:00N 49°33' W 000°16'511.2
2018-Jan-11 18:31N 49°30' W 000°09'611.3
2018-Jan-11 18:01N 49°28' W 000°01'510.3
2018-Jan-11 17:30N 49°26' E 000°07'510.4
2018-Jan-11 17:00N 49°26' E 000°15'4 8.8
2018-Jan-11 16:31N 49°26' E 000°21'4 8.5
2018-Jan-11 16:00N 49°28' E 000°27'3 6.0
2018-Jan-11 15:31N 49°29' E 000°32'4 7.8
2018-Jan-11 15:00N 49°26' E 000°36'4 8.3
2018-Jan-11 14:31N 49°29' E 000°40'4 7.8
2018-Jan-11 14:00N 49°31' E 000°45'5 9.1
2018-Jan-11 13:31N 49°28' E 000°49'4 8.8
2018-Jan-11 13:01N 49°24' E 000°51'5 9.3
2018-Jan-11 12:30N 49°28' E 000°52'3 6.7
2018-Jan-11 12:01N 49°27' E 000°56'510.3
2018-Jan-11 11:31N 49°21' E 000°56'3 6.5
2018-Jan-11 11:01N 49°22' E 001°00'1 1.8
2018-Jan-11 10:30N 49°23' E 001°01'0 0.0
2018-Jan-11 09:57N 49°23' E 001°01'0 0.0
2018-Jan-11 09:30N 49°23' E 001°01'0 0.0
2018-Jan-11 09:00N 49°23' E 001°01'0 0.0
2018-Jan-11 08:30N 49°23' E 001°01'0 0.0
2018-Jan-11 08:00N 49°23' E 001°01'0 0.0
2018-Jan-11 07:30N 49°23' E 001°01'0 0.0
2018-Jan-11 07:00N 49°23' E 001°01'1 1.2
2018-Jan-11 06:30N 49°24' E 001°01'1 1.5
2018-Jan-11 06:00N 49°25' E 001°01'0 0.0
2018-Jan-11 05:30N 49°25' E 001°01'0 0.0
2018-Jan-11 05:00N 49°25' E 001°01'0 0.0
2018-Jan-11 04:30N 49°25' E 001°01'0 0.0
2018-Jan-11 04:00N 49°25' E 001°01'0 0.0
2018-Jan-11 03:30N 49°25' E 001°01'0 0.0
2018-Jan-11 03:00N 49°25' E 001°01'0 0.0
2018-Jan-11 02:30N 49°25' E 001°01'0 0.0
2018-Jan-11 02:00N 49°25' E 001°01'0 0.0
2018-Jan-11 01:30N 49°25' E 001°01'0 0.0
2018-Jan-11 01:00N 49°25' E 001°01'0 0.0
2018-Jan-11 00:30N 49°25' E 001°01'0 0.0
2018-Jan-11 00:00N 49°25' E 001°01'0 0.0
2018-Jan-10 23:30N 49°25' E 001°01'0 0.0
2018-Jan-10 23:00N 49°25' E 001°01'0 0.0
2018-Jan-10 22:30N 49°25' E 001°01'0 0.0
2018-Jan-10 22:00N 49°25' E 001°01'0 0.0
2018-Jan-10 21:30N 49°25' E 001°01'0 0.0
2018-Jan-10 21:00N 49°25' E 001°01'0 0.0
2018-Jan-10 20:30N 49°25' E 001°01'0 0.0
2018-Jan-10 20:00N 49°25' E 001°01'0 0.0
2018-Jan-10 19:24N 49°25' E 001°01'0 0.0
2018-Jan-10 19:00N 49°25' E 001°01'0 0.0
2018-Jan-10 18:30N 49°25' E 001°01'0 0.0
2018-Jan-10 18:00N 49°25' E 001°01'0 0.0
2018-Jan-10 17:30N 49°25' E 001°01'0 0.0
2018-Jan-10 17:00N 49°25' E 001°01'0 0.9
2018-Jan-10 16:30N 49°24' E 001°01'0 0.5
2018-Jan-10 15:58N 49°24' E 001°01'0 0.0
2018-Jan-10 15:28N 49°24' E 001°01'0 0.0
2018-Jan-10 14:58N 49°24' E 001°01'0 0.0
2018-Jan-10 14:28N 49°24' E 001°01'0 0.0
2018-Jan-10 13:58N 49°24' E 001°01'0 0.0
2018-Jan-10 13:28N 49°24' E 001°01'0 0.0
2018-Jan-10 12:58N 49°24' E 001°01'0 0.0
2018-Jan-10 12:28N 49°24' E 001°01'0 0.0
2018-Jan-10 11:58N 49°24' E 001°01'0 0.0
2018-Jan-10 11:28N 49°24' E 001°01'0 0.0
2018-Jan-10 10:58N 49°24' E 001°01'0 0.0
2018-Jan-10 10:28N 49°24' E 001°01'0 0.0
2018-Jan-10 09:58N 49°24' E 001°01'0 0.0
2018-Jan-10 09:28N 49°24' E 001°01'0 0.0
2018-Jan-10 08:58N 49°24' E 001°01'0 0.0
2018-Jan-10 08:28N 49°24' E 001°01'0 0.0
2018-Jan-10 07:58N 49°24' E 001°01'0 0.0
2018-Jan-10 07:28N 49°24' E 001°01'0 0.0
2018-Jan-10 06:58N 49°24' E 001°01'0 0.0
2018-Jan-10 06:25N 49°24' E 001°01'0 0.0
2018-Jan-10 05:58N 49°24' E 001°01'0 0.0
2018-Jan-10 05:28N 49°24' E 001°01'0 0.0
2018-Jan-10 04:58N 49°24' E 001°01'0 0.0
2018-Jan-10 04:25N 49°24' E 001°01'0 0.0
2018-Jan-10 03:58N 49°24' E 001°01'0 0.0
2018-Jan-10 03:28N 49°24' E 001°01'0 0.0
2018-Jan-10 02:58N 49°24' E 001°01'0 0.0
2018-Jan-10 02:28N 49°24' E 001°01'0 0.0
2018-Jan-10 01:58N 49°24' E 001°01'0 0.0
2018-Jan-10 01:28N 49°24' E 001°01'0 0.0
2018-Jan-10 00:58N 49°24' E 001°01'0 0.0
2018-Jan-10 00:28N 49°24' E 001°01'0 0.0
2018-Jan-09 23:58N 49°24' E 001°01'0 0.0
2018-Jan-09 23:28N 49°24' E 001°01'0 0.0
2018-Jan-09 22:55N 49°24' E 001°01'0 0.0
2018-Jan-09 22:28N 49°24' E 001°01'0 0.0
2018-Jan-09 21:58N 49°24' E 001°01'0 0.0
2018-Jan-09 21:28N 49°24' E 001°01'0 0.0
2018-Jan-09 20:58N 49°24' E 001°01'0 0.0
2018-Jan-09 20:19N 49°24' E 001°01'0 0.0
2018-Jan-09 19:58N 49°24' E 001°01'0 0.0
2018-Jan-09 19:28N 49°24' E 001°01'0 0.0
2018-Jan-09 18:58N 49°24' E 001°01'0 0.0
2018-Jan-09 18:28N 49°24' E 001°01'0 0.0
2018-Jan-09 17:58N 49°24' E 001°01'0 0.0
2018-Jan-09 17:25N 49°24' E 001°01'0 0.0
2018-Jan-09 16:58N 49°24' E 001°01'0 0.0
2018-Jan-09 16:28N 49°24' E 001°01'0 0.0
2018-Jan-09 15:58N 49°24' E 001°01'0 0.0
2018-Jan-09 15:28N 49°24' E 001°01'0 0.0
2018-Jan-09 14:58N 49°24' E 001°01'0 0.0
2018-Jan-09 14:28N 49°24' E 001°01'0 0.0
2018-Jan-09 13:58N 49°24' E 001°01'0 0.0
2018-Jan-09 13:28N 49°24' E 001°01'0 0.0
2018-Jan-09 12:58N 49°24' E 001°01'0 0.0
2018-Jan-09 12:28N 49°24' E 001°01'0 0.0
2018-Jan-09 11:58N 49°24' E 001°01'0 0.0
2018-Jan-09 11:28N 49°24' E 001°01'0 0.0
2018-Jan-09 10:58N 49°24' E 001°01'0 0.0
2018-Jan-09 10:28N 49°24' E 001°01'0 0.0
2018-Jan-09 09:58N 49°24' E 001°01'0 0.0
2018-Jan-09 09:28N 49°24' E 001°01'0 0.0
2018-Jan-09 08:58N 49°24' E 001°01'0 0.0
2018-Jan-09 08:28N 49°24' E 001°01'0 0.0
2018-Jan-09 07:58N 49°24' E 001°01'0 0.0
2018-Jan-09 07:28N 49°24' E 001°01'0 0.0
2018-Jan-09 06:58N 49°24' E 001°01'0 0.0
2018-Jan-09 06:28N 49°24' E 001°01'0 0.0
2018-Jan-09 05:58N 49°24' E 001°01'0 0.0
2018-Jan-09 05:28N 49°24' E 001°01'0 0.0
2018-Jan-09 04:58N 49°24' E 001°01'0 0.0
2018-Jan-09 04:28N 49°24' E 001°01'0 0.0
2018-Jan-09 03:58N 49°24' E 001°01'0 0.0
2018-Jan-09 03:28N 49°24' E 001°01'0 0.0
2018-Jan-09 02:58N 49°24' E 001°01'0 0.0
2018-Jan-09 02:28N 49°24' E 001°01'0 0.0
2018-Jan-09 01:58N 49°24' E 001°01'0 0.0
2018-Jan-09 01:28N 49°24' E 001°01'0 0.0
2018-Jan-09 00:58N 49°24' E 001°01'0 0.0
2018-Jan-09 00:28N 49°24' E 001°01'0 0.0
2018-Jan-08 23:58N 49°24' E 001°01'0 0.0
2018-Jan-08 23:28N 49°24' E 001°01'0 0.0
2018-Jan-08 22:58N 49°24' E 001°01'0 0.0
2018-Jan-08 22:28N 49°24' E 001°01'0 0.0
2018-Jan-08 21:58N 49°24' E 001°01'0 0.0
2018-Jan-08 21:28N 49°24' E 001°01'0 0.0
2018-Jan-08 20:58N 49°24' E 001°01'0 0.0
2018-Jan-08 20:28N 49°24' E 001°01'0 0.0
2018-Jan-08 19:58N 49°24' E 001°01'0 0.0
2018-Jan-08 19:28N 49°24' E 001°01'0 0.0
2018-Jan-08 18:58N 49°24' E 001°01'0 0.0
2018-Jan-08 18:28N 49°24' E 001°01'0 0.0
2018-Jan-08 17:58N 49°24' E 001°01'0 0.0
2018-Jan-08 17:28N 49°24' E 001°01'0 0.0
2018-Jan-08 16:58N 49°24' E 001°01'0 0.0
2018-Jan-08 16:28N 49°24' E 001°01'0 0.0
2018-Jan-08 15:58N 49°24' E 001°01'0 0.0
2018-Jan-08 15:28N 49°24' E 001°01'0 0.0
2018-Jan-08 14:58N 49°24' E 001°01'0 0.0
2018-Jan-08 14:28N 49°24' E 001°01'0 0.0
2018-Jan-08 13:58N 49°24' E 001°01'0 0.0
2018-Jan-08 13:25N 49°24' E 001°01'0 0.0
2018-Jan-08 12:58N 49°24' E 001°01'0 0.0
2018-Jan-08 12:28N 49°24' E 001°01'0 0.0
2018-Jan-08 11:55N 49°24' E 001°01'0 0.0
2018-Jan-08 11:28N 49°24' E 001°01'0 0.0
2018-Jan-08 10:58N 49°24' E 001°01'0 0.0
2018-Jan-08 10:28N 49°24' E 001°01'0 0.0
2018-Jan-08 09:58N 49°24' E 001°01'0 0.0
2018-Jan-08 09:28N 49°24' E 001°01'0 0.0
2018-Jan-08 08:58N 49°24' E 001°01'0 0.0
2018-Jan-08 08:28N 49°24' E 001°01'0 0.0
2018-Jan-08 07:58N 49°24' E 001°01'0 0.0
2018-Jan-08 07:28N 49°24' E 001°01'0 0.0
2018-Jan-08 06:58N 49°24' E 001°01'0 0.0
2018-Jan-08 06:28N 49°24' E 001°01'0 0.0
2018-Jan-08 05:58N 49°24' E 001°01'0 0.0
2018-Jan-08 05:28N 49°24' E 001°01'0 0.0
2018-Jan-08 04:58N 49°24' E 001°01'0 0.0
2018-Jan-08 04:30N 49°24' E 001°01'1 2.2
2018-Jan-08 04:00N 49°23' E 001°01'1 2.5
2018-Jan-08 03:30N 49°22' E 000°60'3 6.4
2018-Jan-08 03:00N 49°23' E 000°55'612.3
2018-Jan-08 02:30N 49°29' E 000°55'5 9.5
2018-Jan-08 02:00N 49°25' E 000°52'3 6.4
2018-Jan-08 01:30N 49°27' E 000°49'510.7
2018-Jan-08 01:00N 49°31' E 000°44'4 8.8
2018-Jan-08 00:30N 49°28' E 000°40'5 9.4
2018-Jan-08 00:00N 49°28' E 000°33'5 9.3
2018-Jan-07 23:30N 49°27' E 000°26'713.3
2018-Jan-07 23:00N 49°26' E 000°16'612.9
2018-Jan-07 22:30N 49°26' E 000°06'612.0
2018-Jan-07 22:00N 49°28' W 000°03'3 5.9
2018-Jan-07 21:30N 49°29' W 000°07'1 2.8
2018-Jan-07 21:00N 49°29' W 000°09'0 0.2
2018-Jan-07 20:30N 49°29' W 000°09'0 0.1
2018-Jan-07 20:00N 49°29' W 000°09'0 0.0
2018-Jan-07 19:27N 49°29' W 000°09'0 0.0
2018-Jan-07 19:00N 49°29' W 000°09'0 0.0
2018-Jan-07 18:27N 49°29' W 000°09'0 0.1
2018-Jan-07 17:57N 49°29' W 000°09'0 0.0
2018-Jan-07 17:27N 49°29' W 000°09'0 0.1
2018-Jan-07 16:57N 49°29' W 000°09'0 0.1
2018-Jan-07 16:30N 49°29' W 000°09'0 0.0
2018-Jan-07 16:00N 49°29' W 000°09'0 0.0
2018-Jan-07 15:30N 49°29' W 000°09'1 1.2
2018-Jan-07 15:00N 49°29' W 000°10'2 3.4
2018-Jan-07 14:30N 49°30' W 000°13'4 8.4
2018-Jan-07 14:00N 49°32' W 000°18'5 9.6
2018-Jan-07 13:30N 49°36' W 000°22'4 7.6
2018-Jan-07 13:00N 49°36' W 000°28'4 8.1
2018-Jan-07 12:30N 49°38' W 000°34'4 7.8
2018-Jan-07 12:00N 49°39' W 000°40'4 7.7
2018-Jan-07 11:30N 49°40' W 000°45'4 7.5
2018-Jan-07 11:00N 49°42' W 000°50'77 6.2
2018-Jan-06 22:32N 49°50' W 002°49'010.3
2018-Jan-06 22:30N 49°50' W 002°50'381 7.4
2018-Jan-04 18:59N 43°48' W 005°41'5 9.9
2018-Jan-04 18:28N 43°43' W 005°40'5 9.9
2018-Jan-04 18:00N 43°39' W 005°40'4 8.6
2018-Jan-04 17:30N 43°34' W 005°40'1 0.3
2018-Jan-04 12:36N 43°34' W 005°41'0 0.0
2018-Jan-04 12:18N 43°34' W 005°41'0 0.0
2018-Jan-04 06:30N 43°34' W 005°41'0 0.0
2018-Jan-04 04:30N 43°34' W 005°41'0 0.0
2018-Jan-04 04:00N 43°34' W 005°41'0 0.0
2018-Jan-04 03:30N 43°34' W 005°41'0 0.0
2018-Jan-03 06:54N 43°34' W 005°41'0 0.0
2018-Jan-03 06:18N 43°34' W 005°41'0 0.0
2018-Jan-03 05:48N 43°34' W 005°41'0 0.0
2018-Jan-03 05:12N 43°34' W 005°41'0 0.0
2018-Jan-03 04:54N 43°34' W 005°41'0 0.0
2018-Jan-03 04:18N 43°34' W 005°41'0 0.0
2018-Jan-03 03:42N 43°34' W 005°41'0 0.0
2018-Jan-03 03:12N 43°34' W 005°41'0 0.0
2018-Jan-03 02:00N 43°34' W 005°41'0 0.0
2018-Jan-03 01:18N 43°34' W 005°41'  

Dump ship's entire track history